Latest METARs, TAFs and NOTAMs for LIMF


---------------------------------------------------------------------------
	(OBSERVATIONS)
LIMF 220620Z VRB02KT CAVOK 17/10 Q1019=
LIMF 220550Z 32003KT CAVOK 16/09 Q1019=
LIMF 220520Z 31002KT CAVOK 15/07 Q1019=
LIMF 220450Z 35002KT CAVOK 15/06 Q1018=
LIMF 220350Z 30003KT CAVOK 16/06 Q1018=
---------------------------------------------------------------------------
	(FC)
Sorry, FC For LIMF Not Found
---------------------------------------------------------------------------
	(TERMINAL AREA FORECAST)
LIMF 220500Z 2206/2306 VRB05KT CAVOK=
---------------------------------------------------------------------------
	(NOTAMS)


LIMF A0047/18 REF AIP AD 2 LIMF 1-2 ITEM 4 'HANDLING SERVICES
    AND FACILITIES' BOX 4 'DE-ICING FACILITIES' FLUID TYPE CHANGE
    TO READ AS FOLLOWS: CRYOTECH POLAR GUARD II TYPE II. 04 JAN
    09:00 2018 UNTIL PERM. CREATED: 04 JAN 09:00 2018

LIMF A1597/18 BIELLA VOR/DME 'BLA' FREQ 116.10MHZ CH 108X AVBL
    AS FLW: - VOR RDL 312DEG NOT USABLE - DME RDL 312DEG NOT
    USABLE REF AIP AD 2 LIMF 1-8. 13 MAR 09:03 2018 UNTIL 09
    JUN 23:59 2018 ESTIMATED. CREATED: 13 MAR 09:03 2018

LIMF A2189/18 GENOVA NDB 'GEN' FREQ 318.00KHZ UNSERVICEABLE REF
    AIP AD 2 LIMF 1-9. 05 APR 10:58 2018 UNTIL 08 MAY 23:59 2018
    ESTIMATED. CREATED: 05 APR 10:58 2018

LIMF A2401/18 TRIGGER NOTAM-AIP SUP S4/18 IN FORCE FM 24 MAY
    TO 31 DEC 2018 EST TORINO/CASELLE AIRPORT: EXPANSION WORKS
    OF RESA RWY18 SUP IS POSTED AND AVBL ON WEBSITE WWW.ENAV.IT.
    24 MAY 00:00 2018 UNTIL 06 JUN 23:59 2018. CREATED: 12 APR
    17:21 2018

LIMF A2408/18 GRAPHICS AND DATA REPORTED IN BOTH PLAIN AND PROFILE
    VIEWS OF 'PRECISION APPROACH TERRAIN CHART RWY36' SHALL BE
    DISREGARDED FOR THAT PORTION BTN 900M AND 530M THR36, DUE
    TO THE PRESENCE OF MEN AND EQPT IN RADIO CTC WITH TWR REF
    AIP AD 2 LIMF 3-3. 17 APR 06:00 2018 UNTIL 23 MAY 22:00 2018
    ESTIMATED. CREATED: 13 APR 09:21 2018

LIMF A2425/18 WHEN RWY18 IN USE, ARR/DEP MAY BE SUBJECT TO DELAY
    DUE TO WIP CLEARWAY 18 AREA. MEN AND EQPT IN RADIO CTC WITH
    TWR. REF AIP AD 2 LIMF 2-1. DAILY 0500-1700, 17 APR 05:00
    2018 UNTIL 23 MAY 17:00 2018 ESTIMATED. CREATED: 13 APR 14:31
    2018

LIMF A2576/18 LDG AND TKOF FORBIDDEN TO ALL TFC DUE TO WIP, EXC
    STATE, AMBULANCE AND HUMANITARIAN FLT ONLY IF NOTIFIED TO
    AERODROME OPERATOR (SAGAT S.P.A.) AT LEAST 2HR BFR WORKS
    BEGIN. REF AIP AD 2 LIMF 1-1. DAILY 2130-0350, 23 APR 21:30
    2018 UNTIL 25 APR 03:50 2018. CREATED: 20 APR 07:36 2018

LIMF A2584/18 TORINO CTR. APPROACH CONTROL SERVICE AVBL WITH
    FLW LIMITATION: FLIGHT PATH MONITORING DURING FINAL APPROACH
    PHASE NOT PROVIDED DUE TO MAINT REF AIP AD 2 LIMF 1-7. 04
    MAY 08:00 2018 UNTIL 04 MAY 08:30 2018. CREATED: 20 APR 09:26
    2018

LIMF A2585/18 AERODROME CONTROL SERVICE. GROUND MOVEMENT CONTROL
    PROVIDED WITHOUT USE OF SMR DUE TO MAINT. REF AIP AD 2 LIMF
    1-15. 03 MAY 08:00 2018 UNTIL 03 MAY 09:00 2018. CREATED:
    20 APR 09:34 2018

LIMF A2586/18 AERODROME CONTROL SERVICE AVBL WITHOUT RADAR DUE
    TO APPARATUS ON MAINT. REF AIP AD 2 LIMF 1-15. 04 MAY 08:00
    2018 UNTIL 04 MAY 08:30 2018. CREATED: 20 APR 09:36 2018

---------------------------------------------------------------------------